LiveATC.Net - Listen to live air traffic control over the Internet!


ICAO: KSMO  IATA: SMO   Airport: Santa Monica Municipal Airport
City: Santa Monica   State/Province: California
Country: United States   Continent: North America
KSMO METAR Weather: KSMO 270419Z 22006KT 10SM BKN009 13/11 A3001 RMK AO2 T01330106
KSMO Flight Activity (FlightAware)
KSMO Webcam:  (Airport Webcams) 
KSMO Airport Info   (AirNav) (iFlightPlanner)
KSMO VFR Sectional Chart   (iFlightPlanner) 
KSMO IFR Low Chart   (iFlightPlanner) 
KSMO Tower
Feed Status: DOWN
Last heard on: 2018-04-24 19:39:03 (2 days 8 hours 58 minutes ago)
KSMO Tower Audio Archives
FacilityFrequency
Santa Monica Tower120.100

Feed sponsored by: Proteus Air Services

NOTICE

Unauthorized use prohibited. See LiveATC.net Terms of Service


Find LiveATC Audio Streams


Airport/ARTCC Code

Frequency Search
(e.g., 124.400, 128.75)
Site-wide search
 


Browse LiveATC Feeds
LiveATC Coverage Map
Top 50 LiveATC Feeds
Bad Weather Areas

LiveATC FAQ
Offer a LiveATC Feed
Contact LiveATC.net
Press Inquiries

LiveATC on iPhone
LiveATC on Android

Windows Phone
Windows 8/10

LiveATC Mobile
(Mobile browser)

ATC Audio Archives
Interesting Recordings

LiveATC Forums


Home Page
About LiveATC.net
Make a Donation
Terms of Use
Privacy Policy

Canadian Air Freqs

AIRMETs/SIGMETs

FAA Airport Status
Nat'l Airspace Status
Arrival Demand Charts


Server Software By:
Icecast.org
Liquidsoap